createdAt,value
2023-03-20T00:00:27.389Z,7.10
2023-03-20T00:05:30.847Z,4.28
2023-03-20T00:10:38.788Z,8.18
2023-03-20T00:15:43.518Z,5.50
2023-03-20T00:20:49.128Z,5.00
2023-03-20T00:25:52.213Z,7.45
2023-03-20T00:30:54.085Z,8.63
2023-03-20T00:35:59.047Z,6.15
2023-03-20T00:41:01.114Z,3.72
2023-03-20T00:46:03.387Z,7.25
2023-03-20T00:51:06.067Z,6.38
2023-03-20T00:56:36.140Z,4.22
2023-03-20T01:01:37.993Z,7.57
2023-03-20T01:06:41.197Z,6.00
2023-03-20T01:11:45.166Z,4.90
2023-03-20T01:16:47.007Z,4.68
2023-03-20T01:21:48.836Z,5.70
2023-03-20T01:26:52.795Z,4.10
2023-03-20T01:31:55.134Z,5.63
2023-03-20T01:36:59.367Z,5.30
2023-03-20T01:42:02.438Z,5.72
2023-03-20T01:47:16.612Z,9.23
2023-03-20T01:52:19.598Z,4.25
2023-03-20T01:57:25.745Z,5.03
2023-03-20T02:02:31.423Z,6.05
2023-03-20T02:07:36.107Z,3.92
2023-03-20T02:12:41.465Z,4.25
2023-03-20T02:17:46.222Z,5.40
2023-03-20T02:22:51.325Z,8.30
2023-03-20T02:27:57.828Z,7.82
2023-03-20T02:33:20.981Z,4.72
2023-03-20T02:38:38.348Z,4.95
2023-03-20T02:43:52.216Z,7.35
2023-03-20T02:49:10.425Z,5.10
2023-03-20T02:54:40.790Z,4.68
2023-03-20T02:59:54.361Z,4.70
2023-03-20T03:05:02.953Z,4.88
2023-03-20T03:10:13.771Z,5.78
2023-03-20T03:15:25.899Z,4.65
2023-03-20T03:20:34.710Z,5.38
2023-03-20T03:25:41.543Z,4.35
2023-03-20T03:30:45.343Z,3.67
2023-03-20T03:35:48.597Z,6.35
2023-03-20T03:41:11.196Z,4.75
2023-03-20T03:46:45.049Z,3.80
2023-03-20T03:51:51.105Z,3.90
2023-03-20T03:56:55.080Z,7.47
2023-03-20T04:01:59.952Z,4.18
2023-03-20T04:07:01.965Z,5.75
2023-03-20T04:12:04.195Z,4.40
2023-03-20T04:17:07.617Z,3.92
2023-03-20T04:22:09.498Z,5.18
2023-03-20T04:27:11.552Z,2.08
2023-03-20T04:32:15.133Z,5.57
2023-03-20T04:37:32.920Z,8.00
2023-03-20T04:42:41.702Z,4.40
2023-03-20T04:47:43.852Z,9.68
2023-03-20T04:52:46.396Z,8.60
2023-03-20T04:57:50.540Z,5.70
2023-03-20T05:02:52.414Z,6.60
2023-03-20T05:07:54.827Z,4.95
2023-03-20T05:13:07.342Z,3.70
2023-03-20T05:24:11.244Z,5.15
2023-03-20T05:29:42.337Z,3.53
2023-03-20T05:35:02.516Z,5.95
2023-03-20T05:40:27.085Z,8.35
2023-03-20T05:46:07.172Z,4.20
2023-03-20T05:51:27.419Z,5.25
2023-03-20T05:56:46.850Z,4.25
2023-03-20T06:02:06.918Z,7.47
2023-03-20T06:07:10.796Z,7.00
2023-03-20T06:12:16.284Z,4.20
2023-03-20T06:17:18.558Z,3.85
2023-03-20T06:22:26.458Z,4.43
2023-03-20T06:27:28.469Z,5.38
2023-03-20T06:32:30.426Z,2.60
2023-03-20T06:37:34.868Z,5.95
2023-03-20T06:42:42.427Z,6.28
2023-03-20T06:47:45.072Z,4.63
2023-03-20T06:52:47.579Z,5.00
2023-03-20T06:58:12.940Z,6.15
2023-03-20T07:03:16.759Z,5.68
2023-03-20T07:08:21.561Z,5.03
2023-03-20T07:13:24.961Z,4.53
2023-03-20T07:18:27.936Z,8.15
2023-03-20T07:23:31.981Z,5.32
2023-03-20T07:28:33.942Z,4.63
2023-03-20T07:33:46.135Z,4.70
2023-03-20T07:38:48.529Z,8.43
2023-03-20T07:43:50.547Z,4.43
2023-03-20T07:49:24.545Z,9.30
2023-03-20T07:54:26.681Z,5.10
2023-03-20T07:59:28.532Z,4.95
2023-03-20T08:04:30.304Z,4.97
2023-03-20T08:09:32.191Z,5.15
2023-03-20T08:14:34.301Z,5.85
2023-03-20T08:19:36.536Z,5.95
2023-03-20T08:24:38.474Z,5.82
2023-03-20T08:29:40.407Z,6.65
2023-03-20T08:34:42.348Z,9.18
2023-03-20T08:39:44.411Z,9.50
2023-03-20T08:44:46.334Z,16.77
2023-03-20T08:49:48.233Z,10.80
2023-03-20T08:54:50.024Z,9.00
2023-03-20T08:59:51.955Z,12.40
2023-03-20T09:04:53.709Z,10.90
2023-03-20T09:09:55.748Z,10.68
2023-03-20T09:14:57.887Z,7.78
2023-03-20T09:19:59.755Z,11.13
2023-03-20T09:25:01.538Z,10.02
2023-03-20T09:30:04.933Z,12.43
2023-03-20T09:35:06.838Z,26.55
2023-03-20T09:40:19.716Z,27.25
2023-03-20T09:45:49.326Z,29.85
2023-03-20T09:51:16.089Z,25.15
2023-03-20T09:56:23.254Z,19.40
2023-03-20T10:01:31.531Z,20.38
2023-03-20T10:06:33.761Z,15.82
2023-03-20T10:11:54.282Z,22.23
2023-03-20T10:17:14.458Z,17.80
2023-03-20T10:22:25.472Z,21.23
2023-03-20T10:27:34.566Z,22.52
2023-03-20T10:32:44.221Z,23.67
2023-03-20T10:38:04.368Z,26.57
2023-03-20T10:43:17.973Z,21.13
2023-03-20T10:48:32.197Z,22.08
2023-03-20T10:53:41.664Z,22.73
2023-03-20T10:58:47.288Z,21.67
2023-03-20T11:03:49.124Z,19.88
2023-03-20T11:08:53.488Z,21.98
2023-03-20T11:13:55.663Z,19.48
2023-03-20T11:19:08.856Z,18.88
2023-03-20T11:24:32.782Z,20.17
2023-03-20T11:29:35.939Z,21.15
2023-03-20T11:34:41.065Z,24.58
2023-03-20T11:40:13.286Z,25.63
2023-03-20T11:45:18.472Z,27.35
2023-03-20T11:50:36.868Z,27.15
2023-03-20T11:55:39.088Z,30.67
2023-03-20T12:00:42.891Z,32.03
2023-03-20T12:05:44.687Z,28.30
2023-03-20T12:11:00.526Z,30.63
2023-03-20T12:16:06.274Z,29.23
2023-03-20T12:21:15.710Z,29.10
2023-03-20T12:26:29.028Z,25.10
2023-03-20T12:31:33.450Z,25.02
2023-03-20T12:36:39.276Z,21.67
2023-03-20T12:42:07.321Z,19.95
2023-03-20T12:47:39.974Z,23.95
2023-03-20T12:52:48.174Z,22.98
2023-03-20T12:58:13.069Z,22.58
2023-03-20T13:03:57.647Z,26.80
2023-03-20T13:09:01.983Z,28.55
2023-03-20T13:14:48.323Z,23.50
2023-03-20T13:20:12.032Z,27.10
2023-03-20T13:25:29.059Z,25.35
2023-03-20T13:30:49.462Z,30.10
2023-03-20T13:36:24.474Z,21.52
2023-03-20T13:41:27.282Z,24.45
2023-03-20T13:46:41.641Z,24.92
2023-03-20T13:51:57.008Z,24.30
2023-03-20T13:57:17.836Z,26.60
2023-03-20T14:07:33.730Z,29.27
2023-03-20T14:12:35.832Z,25.00
2023-03-20T14:17:44.667Z,26.67
2023-03-20T14:22:49.404Z,25.95
2023-03-20T14:28:07.445Z,24.45
2023-03-20T14:33:16.087Z,16.83
2023-03-20T14:38:29.913Z,20.05
2023-03-20T14:43:59.892Z,14.55
2023-03-20T14:49:39.244Z,16.42
2023-03-20T14:54:41.800Z,16.52
2023-03-20T14:59:43.629Z,16.23
2023-03-20T15:04:45.516Z,15.88
2023-03-20T15:09:51.133Z,13.05
2023-03-20T15:15:00.352Z,9.75
2023-03-20T15:20:17.481Z,10.05
2023-03-20T15:25:21.616Z,10.73
2023-03-20T15:30:24.236Z,7.90
2023-03-20T15:35:27.513Z,9.88
2023-03-20T15:40:47.358Z,9.27
2023-03-20T15:46:02.782Z,9.00
2023-03-20T15:51:10.860Z,13.25
2023-03-20T15:56:18.746Z,9.82
2023-03-20T16:01:24.361Z,8.85
2023-03-20T16:06:27.058Z,32.13
2023-03-20T16:11:43.172Z,19.73
2023-03-20T16:16:49.106Z,11.43
2023-03-20T16:21:57.819Z,12.75
2023-03-20T16:27:00.255Z,14.20
2023-03-20T16:32:06.847Z,18.52
2023-03-20T16:37:23.464Z,24.13
2023-03-20T16:42:29.373Z,20.75
2023-03-20T16:47:36.461Z,16.02
2023-03-20T16:52:41.502Z,11.70
2023-03-20T16:57:47.562Z,17.38
2023-03-20T17:02:52.436Z,13.63
2023-03-20T17:08:03.792Z,12.18
2023-03-20T17:13:07.609Z,15.48
2023-03-20T17:18:13.776Z,18.33
2023-03-20T17:23:20.277Z,16.63
2023-03-20T17:28:28.336Z,13.85
2023-03-20T17:33:30.182Z,11.05
2023-03-20T17:38:32.479Z,13.13
2023-03-20T17:43:34.690Z,17.33
2023-03-20T17:48:36.687Z,13.90
2023-03-20T17:53:38.728Z,9.77
2023-03-20T17:58:45.410Z,15.02
2023-03-20T18:03:51.216Z,48.95
2023-03-20T18:08:55.089Z,52.97
2023-03-20T18:13:57.844Z,21.52
2023-03-20T18:19:01.694Z,20.67
2023-03-20T18:24:04.217Z,16.00
2023-03-20T18:29:06.328Z,28.42
2023-03-20T18:34:09.839Z,19.40
2023-03-20T18:39:25.492Z,12.40
2023-03-20T18:44:28.398Z,13.48
2023-03-20T18:49:31.221Z,13.98
2023-03-20T18:54:33.298Z,56.72
2023-03-20T18:59:35.576Z,22.02
2023-03-20T19:04:37.409Z,22.50
2023-03-20T19:09:39.252Z,60.15
2023-03-20T19:14:41.497Z,25.92
2023-03-20T19:19:43.501Z,17.75
2023-03-20T19:24:45.891Z,16.88
2023-03-20T19:29:48.805Z,15.13
2023-03-20T19:40:27.948Z,17.02
2023-03-20T19:45:33.300Z,20.90
2023-03-20T19:50:41.359Z,22.20
2023-03-20T19:55:45.870Z,18.35
2023-03-20T20:00:59.760Z,20.58
2023-03-20T20:06:03.907Z,22.02
2023-03-20T20:11:06.718Z,18.67
2023-03-20T20:16:08.884Z,19.02
2023-03-20T20:22:02.454Z,18.85
2023-03-20T20:26:38.972Z,19.45
2023-03-20T20:31:44.249Z,21.35
2023-03-20T20:42:07.933Z,20.60
2023-03-20T20:47:10.050Z,24.45
2023-03-20T20:52:11.923Z,27.98
2023-03-20T20:57:14.425Z,21.77
2023-03-20T21:02:17.628Z,21.92
2023-03-20T21:07:19.900Z,22.05
2023-03-20T21:12:34.756Z,25.33
2023-03-20T21:17:50.469Z,23.17
2023-03-20T21:23:05.435Z,21.08
2023-03-20T21:28:07.951Z,23.17
2023-03-20T21:33:09.803Z,23.52
2023-03-20T21:43:33.401Z,22.58
2023-03-20T21:49:40.164Z,21.15
2023-03-20T21:54:48.611Z,28.10
2023-03-20T22:00:01.223Z,26.60
2023-03-20T22:10:55.682Z,18.65
2023-03-20T22:16:31.183Z,22.15
2023-03-20T22:27:08.624Z,21.52
2023-03-20T22:37:46.651Z,21.52
2023-03-20T22:47:46.119Z,22.10
2023-03-20T22:52:49.703Z,18.48
2023-03-20T22:58:05.824Z,20.08
2023-03-20T23:03:26.176Z,18.33
2023-03-20T23:08:31.452Z,20.15
2023-03-20T23:13:35.827Z,23.95
2023-03-20T23:18:38.183Z,16.58
2023-03-20T23:23:40.539Z,20.38
2023-03-20T23:28:45.214Z,21.92
2023-03-20T23:33:52.491Z,20.30
2023-03-20T23:38:54.324Z,18.38
2023-03-20T23:43:56.256Z,18.92
2023-03-20T23:48:58.055Z,19.10
2023-03-20T23:53:59.946Z,21.77
